createdAt,value
2023-01-19T00:01:39.975Z,2.44
2023-01-19T00:04:08.066Z,2.34
2023-01-19T00:06:36.214Z,2.36
2023-01-19T00:09:04.265Z,2.45
2023-01-19T00:11:32.168Z,2.22
2023-01-19T00:14:00.268Z,2.21
2023-01-19T00:16:28.192Z,2.28
2023-01-19T00:18:56.123Z,2.24
2023-01-19T00:21:26.369Z,2.63
2023-01-19T00:23:58.104Z,2.50
2023-01-19T00:26:26.068Z,2.47
2023-01-19T00:29:21.530Z,2.46
2023-01-19T00:31:51.318Z,2.47
2023-01-19T00:34:19.404Z,2.61
2023-01-19T00:36:47.312Z,2.53
2023-01-19T00:39:15.545Z,2.57
2023-01-19T00:42:02.673Z,2.45
2023-01-19T00:44:30.526Z,2.53
2023-01-19T00:46:59.072Z,2.47
2023-01-19T00:49:26.972Z,2.25
2023-01-19T00:51:54.797Z,2.48
2023-01-19T00:54:25.516Z,2.38
2023-01-19T00:56:54.282Z,2.44
2023-01-19T00:59:22.121Z,2.66
2023-01-19T01:01:51.016Z,2.65
2023-01-19T01:04:20.420Z,2.49
2023-01-19T01:06:48.310Z,2.46
2023-01-19T01:09:18.361Z,2.37
2023-01-19T01:11:47.069Z,2.52
2023-01-19T01:14:18.357Z,2.49
2023-01-19T01:16:46.352Z,2.67
2023-01-19T01:19:16.324Z,2.30
2023-01-19T01:21:45.185Z,2.43
2023-01-19T01:27:05.528Z,2.39
2023-01-19T01:29:58.680Z,2.36
2023-01-19T01:32:32.330Z,2.40
2023-01-19T01:35:01.066Z,2.35
2023-01-19T01:37:28.927Z,2.34
2023-01-19T01:39:56.875Z,2.34
2023-01-19T01:42:30.455Z,2.37
2023-01-19T01:45:19.352Z,2.47
2023-01-19T01:47:50.034Z,2.34
2023-01-19T01:50:21.996Z,2.21
2023-01-19T01:53:07.135Z,2.16
2023-01-19T01:55:43.496Z,2.42
2023-01-19T01:58:15.162Z,2.43
2023-01-19T02:01:02.764Z,2.35
2023-01-19T02:03:33.150Z,2.18
2023-01-19T02:06:07.255Z,2.31
2023-01-19T02:09:07.598Z,2.10
2023-01-19T02:11:55.373Z,2.34
2023-01-19T02:14:23.286Z,2.21
2023-01-19T02:16:51.135Z,2.22
2023-01-19T02:19:32.987Z,2.48
2023-01-19T02:22:08.998Z,2.31
2023-01-19T02:24:38.155Z,2.44
2023-01-19T02:27:08.132Z,2.24
2023-01-19T02:29:40.398Z,2.17
2023-01-19T02:32:12.868Z,2.39
2023-01-19T02:34:41.366Z,2.43
2023-01-19T02:37:13.810Z,2.53
2023-01-19T02:39:59.354Z,2.50
2023-01-19T02:42:43.647Z,2.21
2023-01-19T02:45:15.601Z,2.04
2023-01-19T02:47:46.591Z,2.28
2023-01-19T02:50:34.490Z,2.00
2023-01-19T02:53:43.893Z,1.99
2023-01-19T02:59:57.432Z,2.25
2023-01-19T03:02:37.430Z,2.22
2023-01-19T03:05:21.153Z,2.20
2023-01-19T03:07:54.794Z,2.38
2023-01-19T03:10:49.380Z,2.26
2023-01-19T03:13:49.496Z,2.23
2023-01-19T03:19:44.177Z,2.01
2023-01-19T03:22:23.743Z,2.04
2023-01-19T03:25:20.360Z,1.74
2023-01-19T03:27:52.882Z,1.78
2023-01-19T03:30:27.038Z,1.81
2023-01-19T03:33:11.756Z,1.98
2023-01-19T03:38:39.429Z,2.14
2023-01-19T03:41:15.500Z,1.90
2023-01-19T03:46:40.381Z,2.10
2023-01-19T03:49:09.475Z,2.14
2023-01-19T03:51:41.369Z,2.06
2023-01-19T03:54:11.124Z,2.35
2023-01-19T03:56:39.397Z,2.26
2023-01-19T03:59:07.443Z,2.31
2023-01-19T04:01:35.359Z,2.27
2023-01-19T04:04:07.365Z,2.33
2023-01-19T04:07:01.314Z,2.34
2023-01-19T04:09:30.617Z,2.22
2023-01-19T04:11:58.689Z,2.33
2023-01-19T04:14:26.529Z,2.25
2023-01-19T04:16:54.455Z,2.26
2023-01-19T04:19:22.340Z,2.22
2023-01-19T04:21:50.885Z,2.33
2023-01-19T04:24:19.565Z,2.21
2023-01-19T04:26:47.536Z,2.39
2023-01-19T04:29:15.447Z,2.14
2023-01-19T04:34:35.011Z,2.05
2023-01-19T04:37:02.850Z,2.06
2023-01-19T04:39:30.718Z,2.11
2023-01-19T04:41:59.396Z,2.25
2023-01-19T04:44:28.091Z,2.16
2023-01-19T04:46:55.992Z,2.33
2023-01-19T04:49:25.386Z,2.06
2023-01-19T04:51:54.211Z,2.02
2023-01-19T04:54:24.395Z,2.13
2023-01-19T04:56:52.329Z,2.12
2023-01-19T04:59:21.449Z,2.01
2023-01-19T05:01:49.547Z,2.13
2023-01-19T05:04:17.511Z,2.18
2023-01-19T05:06:49.444Z,2.09
2023-01-19T05:09:17.427Z,2.15
2023-01-19T05:11:45.287Z,1.92
2023-01-19T05:14:15.468Z,1.93
2023-01-19T05:16:43.299Z,1.94
2023-01-19T05:19:11.130Z,2.00
2023-01-19T05:21:39.707Z,1.90
2023-01-19T05:24:08.097Z,1.79
2023-01-19T05:26:36.538Z,2.18
2023-01-19T05:29:04.411Z,2.00
2023-01-19T05:31:37.472Z,1.90
2023-01-19T05:34:06.980Z,1.76
2023-01-19T05:36:34.820Z,1.75
2023-01-19T05:39:04.384Z,1.89
2023-01-19T05:41:33.266Z,1.85
2023-01-19T05:44:01.109Z,1.81
2023-01-19T05:46:30.521Z,1.80
2023-01-19T05:48:58.531Z,1.79
2023-01-19T05:51:26.378Z,1.89
2023-01-19T05:54:20.358Z,1.90
2023-01-19T05:56:48.214Z,1.78
2023-01-19T05:59:17.974Z,1.82
2023-01-19T06:01:46.200Z,1.83
2023-01-19T06:04:14.133Z,1.78
2023-01-19T06:06:41.993Z,1.83
2023-01-19T06:09:09.929Z,1.91
2023-01-19T06:11:38.377Z,2.03
2023-01-19T06:14:06.243Z,1.89
2023-01-19T06:16:34.242Z,1.82
2023-01-19T06:19:03.373Z,1.82
2023-01-19T06:21:31.513Z,1.76
2023-01-19T06:23:59.473Z,1.91
2023-01-19T06:26:28.230Z,1.96
2023-01-19T06:28:56.228Z,1.91
2023-01-19T06:31:24.428Z,1.98
2023-01-19T06:33:52.288Z,1.84
2023-01-19T06:36:48.472Z,2.02
2023-01-19T06:39:16.330Z,1.84
2023-01-19T06:41:44.163Z,1.94
2023-01-19T06:44:12.562Z,2.01
2023-01-19T06:46:40.450Z,1.92
2023-01-19T06:52:04.681Z,1.91
2023-01-19T06:54:33.167Z,1.83
2023-01-19T06:57:04.360Z,1.83
2023-01-19T06:59:33.063Z,1.89
2023-01-19T07:02:26.678Z,1.89
2023-01-19T07:04:54.101Z,2.04
2023-01-19T07:07:22.479Z,1.93
2023-01-19T07:09:53.794Z,1.83
2023-01-19T07:12:23.420Z,2.08
2023-01-19T07:14:51.734Z,1.92
2023-01-19T07:17:19.808Z,1.88
2023-01-19T07:19:47.701Z,1.93
2023-01-19T07:22:15.546Z,1.95
2023-01-19T07:24:44.415Z,2.07
2023-01-19T07:27:12.739Z,2.18
2023-01-19T07:29:40.661Z,2.81
2023-01-19T07:32:08.890Z,2.30
2023-01-19T07:35:05.399Z,2.04
2023-01-19T07:37:33.345Z,2.08
2023-01-19T07:40:01.935Z,2.14
2023-01-19T07:42:29.963Z,2.12
2023-01-19T07:44:58.244Z,2.08
2023-01-19T07:47:26.265Z,2.14
2023-01-19T07:49:54.095Z,2.03
2023-01-19T07:52:24.442Z,1.93
2023-01-19T07:54:54.168Z,2.02
2023-01-19T07:57:22.100Z,2.28
2023-01-19T07:59:50.044Z,2.13
2023-01-19T08:05:11.511Z,1.91
2023-01-19T08:07:39.430Z,1.87
2023-01-19T08:10:13.746Z,1.84
2023-01-19T08:12:43.172Z,1.99
2023-01-19T08:15:11.383Z,2.03
2023-01-19T08:20:32.406Z,2.02
2023-01-19T08:23:05.419Z,1.80
2023-01-19T08:25:50.477Z,1.73
2023-01-19T08:28:18.656Z,1.48
2023-01-19T08:30:53.922Z,1.63
2023-01-19T08:33:23.684Z,1.47
2023-01-19T08:35:54.674Z,2.08
2023-01-19T08:38:24.764Z,1.64
2023-01-19T08:40:53.430Z,1.86
2023-01-19T08:43:21.268Z,2.10
2023-01-19T08:45:53.200Z,1.67
2023-01-19T08:48:23.572Z,2.03
2023-01-19T08:50:53.416Z,1.74
2023-01-19T08:53:23.856Z,1.98
2023-01-19T08:55:57.557Z,1.93
2023-01-19T08:58:27.508Z,1.91
2023-01-19T09:03:49.407Z,2.04
2023-01-19T09:06:18.473Z,2.14
2023-01-19T09:09:12.489Z,1.86
2023-01-19T09:11:40.430Z,1.78
2023-01-19T09:14:09.035Z,1.75
2023-01-19T09:16:40.428Z,1.72
2023-01-19T09:19:09.193Z,2.04
2023-01-19T09:21:40.539Z,1.86
2023-01-19T09:24:09.284Z,1.79
2023-01-19T09:27:03.166Z,1.61
2023-01-19T09:29:30.994Z,2.03
2023-01-19T09:31:58.878Z,1.82
2023-01-19T09:34:27.436Z,1.92
2023-01-19T09:36:57.312Z,1.88
2023-01-19T09:39:27.111Z,1.78
2023-01-19T09:42:23.538Z,1.86
2023-01-19T09:44:53.239Z,1.89
2023-01-19T09:47:26.401Z,1.78
2023-01-19T09:50:07.169Z,1.65
2023-01-19T09:52:43.440Z,1.75
2023-01-19T09:55:21.171Z,1.87
2023-01-19T09:57:50.401Z,1.89
2023-01-19T10:00:18.585Z,1.99
2023-01-19T10:03:16.447Z,1.86
2023-01-19T10:05:53.788Z,2.08
2023-01-19T10:08:43.437Z,2.16
2023-01-19T10:11:51.650Z,1.97
2023-01-19T10:14:50.555Z,1.97
2023-01-19T10:17:52.804Z,2.04
2023-01-19T10:20:39.570Z,2.13
2023-01-19T10:23:40.174Z,2.01
2023-01-19T10:26:17.395Z,1.92
2023-01-19T10:28:55.537Z,1.87
2023-01-19T10:31:25.588Z,1.97
2023-01-19T10:33:57.515Z,2.06
2023-01-19T10:36:39.760Z,2.13
2023-01-19T10:39:09.726Z,2.03
2023-01-19T10:41:43.443Z,2.18
2023-01-19T10:44:12.084Z,2.07
2023-01-19T10:46:47.491Z,2.20
2023-01-19T10:49:33.764Z,2.20
2023-01-19T10:52:30.973Z,2.12
2023-01-19T10:55:00.521Z,2.35
2023-01-19T10:57:37.423Z,2.41
2023-01-19T11:00:07.394Z,2.09
2023-01-19T11:02:35.687Z,2.22
2023-01-19T11:05:28.445Z,2.06
2023-01-19T11:07:58.414Z,2.30
2023-01-19T11:10:28.970Z,1.84
2023-01-19T11:13:12.928Z,1.99
2023-01-19T11:16:19.342Z,1.95
2023-01-19T11:18:53.445Z,2.18
2023-01-19T11:21:26.282Z,2.05
2023-01-19T11:24:00.427Z,2.26
2023-01-19T11:26:50.294Z,2.33
2023-01-19T11:32:22.786Z,2.20
2023-01-19T11:34:52.586Z,2.02
2023-01-19T11:37:20.365Z,2.17
2023-01-19T11:39:51.011Z,1.85
2023-01-19T11:42:44.654Z,2.44
2023-01-19T11:45:23.455Z,2.51
2023-01-19T11:47:53.077Z,2.16
2023-01-19T11:50:50.589Z,2.22
2023-01-19T11:53:29.293Z,2.42
2023-01-19T11:56:12.471Z,2.11
2023-01-19T11:58:47.914Z,2.08
2023-01-19T12:04:39.547Z,2.22
2023-01-19T12:07:12.186Z,2.51
2023-01-19T12:09:47.443Z,2.47
2023-01-19T12:12:30.679Z,2.22
2023-01-19T12:15:03.248Z,1.84
2023-01-19T12:17:35.447Z,2.29
2023-01-19T12:20:31.173Z,2.13
2023-01-19T12:23:11.588Z,2.33
2023-01-19T12:26:17.675Z,2.43
2023-01-19T12:28:50.725Z,2.38
2023-01-19T12:34:31.509Z,2.13
2023-01-19T12:37:07.180Z,2.03
2023-01-19T12:39:35.562Z,2.29
2023-01-19T12:42:29.460Z,1.98
2023-01-19T12:45:13.658Z,1.98
2023-01-19T12:47:52.887Z,2.02
2023-01-19T12:50:27.418Z,2.34
2023-01-19T12:53:02.691Z,2.03
2023-01-19T12:55:35.410Z,2.22
2023-01-19T12:58:07.548Z,2.29
2023-01-19T13:00:38.415Z,2.29
2023-01-19T13:03:18.380Z,2.04
2023-01-19T13:05:57.572Z,1.93
2023-01-19T13:08:30.401Z,1.92
2023-01-19T13:14:02.078Z,2.35
2023-01-19T13:16:29.870Z,2.11
2023-01-19T13:19:15.814Z,1.85
2023-01-19T13:21:46.910Z,2.07
2023-01-19T13:24:18.428Z,1.97
2023-01-19T13:26:49.341Z,2.09
2023-01-19T13:29:20.901Z,2.10
2023-01-19T13:31:55.412Z,2.17
2023-01-19T13:37:25.447Z,2.02
2023-01-19T13:39:55.068Z,1.93
2023-01-19T13:42:34.582Z,2.16
2023-01-19T13:45:16.282Z,2.02
2023-01-19T13:47:49.492Z,2.19
2023-01-19T13:50:21.568Z,2.11
2023-01-19T13:52:51.469Z,2.16
2023-01-19T13:55:20.661Z,2.20
2023-01-19T13:57:54.420Z,2.18
2023-01-19T14:00:29.265Z,2.22
2023-01-19T14:03:02.460Z,2.01
2023-01-19T14:05:34.993Z,1.95
2023-01-19T14:08:09.652Z,1.79
2023-01-19T14:10:48.177Z,1.82
2023-01-19T14:13:26.383Z,1.99
2023-01-19T14:15:57.820Z,2.01
2023-01-19T14:18:31.609Z,1.89
2023-01-19T14:21:02.812Z,1.76
2023-01-19T14:23:50.678Z,2.02
2023-01-19T14:26:37.216Z,1.85
2023-01-19T14:29:32.641Z,1.78
2023-01-19T14:32:00.807Z,1.86
2023-01-19T14:34:42.443Z,2.00
2023-01-19T14:37:20.177Z,1.80
2023-01-19T14:40:15.443Z,1.86
2023-01-19T14:42:43.191Z,1.73
2023-01-19T14:45:30.442Z,1.76
2023-01-19T14:48:12.293Z,1.47
2023-01-19T14:50:51.006Z,1.71
2023-01-19T14:53:36.609Z,1.82
2023-01-19T14:56:07.611Z,1.92
2023-01-19T14:58:39.669Z,1.79
2023-01-19T15:01:09.725Z,1.77
2023-01-19T15:03:45.828Z,1.72
2023-01-19T15:06:46.464Z,1.78
2023-01-19T15:09:15.814Z,1.83
2023-01-19T15:11:45.165Z,1.59
2023-01-19T15:14:18.452Z,1.69
2023-01-19T15:16:47.156Z,1.66
2023-01-19T15:19:17.028Z,1.77
2023-01-19T15:21:46.843Z,1.85
2023-01-19T15:27:12.499Z,1.77
2023-01-19T15:29:40.467Z,1.86
2023-01-19T15:32:15.477Z,1.66
2023-01-19T15:34:44.180Z,1.64
2023-01-19T15:37:12.029Z,1.64
2023-01-19T15:39:40.512Z,1.76
2023-01-19T15:42:18.261Z,1.73
2023-01-19T15:44:47.615Z,1.70
2023-01-19T15:47:15.679Z,1.45
2023-01-19T15:49:43.602Z,1.58
2023-01-19T15:52:11.507Z,1.79
2023-01-19T15:54:40.106Z,1.87
2023-01-19T16:00:05.592Z,1.60
2023-01-19T16:02:40.919Z,1.58
2023-01-19T16:05:10.714Z,1.54
2023-01-19T16:07:38.689Z,1.64
2023-01-19T16:10:09.527Z,1.70
2023-01-19T16:12:37.619Z,1.62
2023-01-19T16:15:06.042Z,1.41
2023-01-19T16:17:33.894Z,1.54
2023-01-19T16:20:01.943Z,1.51
2023-01-19T16:22:29.787Z,1.58
2023-01-19T16:24:58.364Z,1.58
2023-01-19T16:27:26.423Z,1.46
2023-01-19T16:29:54.341Z,1.58
2023-01-19T16:32:22.199Z,1.44
2023-01-19T16:34:50.203Z,1.46
2023-01-19T16:37:18.445Z,1.49
2023-01-19T16:39:46.287Z,1.43
2023-01-19T16:42:16.498Z,1.39
2023-01-19T16:44:44.505Z,1.69
2023-01-19T16:47:17.209Z,1.45
2023-01-19T16:49:45.476Z,1.39
2023-01-19T16:52:13.341Z,1.37
2023-01-19T16:54:43.153Z,1.52
2023-01-19T16:57:11.492Z,1.37
2023-01-19T16:59:41.726Z,1.31
2023-01-19T17:02:11.050Z,1.35
2023-01-19T17:04:39.136Z,1.36
2023-01-19T17:07:07.336Z,1.39
2023-01-19T17:09:35.169Z,1.24
2023-01-19T17:12:05.949Z,1.19
2023-01-19T17:14:34.765Z,1.25
2023-01-19T17:17:06.473Z,1.25
2023-01-19T17:19:35.594Z,1.28
2023-01-19T17:22:03.469Z,1.18
2023-01-19T17:24:36.860Z,1.18
2023-01-19T17:27:04.707Z,1.08
2023-01-19T17:29:32.541Z,1.03
2023-01-19T17:32:02.731Z,0.95
2023-01-19T17:34:30.612Z,1.06
2023-01-19T17:37:04.635Z,1.07
2023-01-19T17:39:32.764Z,0.96
2023-01-19T17:42:00.646Z,0.95
2023-01-19T17:44:28.701Z,0.96
2023-01-19T17:46:59.858Z,1.13
2023-01-19T17:49:27.969Z,1.18
2023-01-19T17:51:57.492Z,1.13
2023-01-19T17:54:25.400Z,1.08
2023-01-19T17:56:53.283Z,1.04
2023-01-19T17:59:22.527Z,1.09
2023-01-19T18:01:50.583Z,1.07
2023-01-19T18:04:18.478Z,1.13
2023-01-19T18:06:47.480Z,1.11
2023-01-19T18:09:15.536Z,1.07
2023-01-19T18:11:43.392Z,1.14
2023-01-19T18:14:11.350Z,1.12
2023-01-19T18:16:39.248Z,1.12
2023-01-19T18:19:07.432Z,0.81
2023-01-19T18:21:35.326Z,0.99
2023-01-19T18:24:07.497Z,1.07
2023-01-19T18:26:37.588Z,0.89
2023-01-19T18:29:06.154Z,0.99
2023-01-19T18:31:37.489Z,0.83
2023-01-19T18:34:07.216Z,0.90
2023-01-19T18:36:36.509Z,1.04
2023-01-19T18:39:04.502Z,0.68
2023-01-19T18:41:34.141Z,0.53
2023-01-19T18:44:02.657Z,0.52
2023-01-19T18:46:30.586Z,0.53
2023-01-19T18:48:58.954Z,0.64
2023-01-19T18:51:32.575Z,0.63
2023-01-19T18:54:00.499Z,0.60
2023-01-19T18:56:28.790Z,0.56
2023-01-19T18:58:57.267Z,0.63
2023-01-19T19:01:36.586Z,0.67
2023-01-19T19:04:04.906Z,0.55
2023-01-19T19:06:32.772Z,0.49
2023-01-19T19:09:00.706Z,0.59
2023-01-19T19:11:28.671Z,0.48
2023-01-19T19:13:59.673Z,0.43
2023-01-19T19:16:34.104Z,0.46
2023-01-19T19:19:03.513Z,0.41
2023-01-19T19:21:31.451Z,0.39
2023-01-19T19:23:59.355Z,0.36
2023-01-19T19:26:34.499Z,0.27
2023-01-19T19:29:03.358Z,0.25
2023-01-19T19:31:31.680Z,0.09
2023-01-19T19:34:03.493Z,0.09
2023-01-19T19:36:33.411Z,0.23
2023-01-19T19:39:01.525Z,0.15
2023-01-19T19:41:32.168Z,0.03
2023-01-19T19:44:02.463Z,0.04
2023-01-19T19:46:30.730Z,0.04
2023-01-19T19:48:58.651Z,0.17
2023-01-19T19:51:52.212Z,0.02
2023-01-19T19:57:12.768Z,0.30
2023-01-19T19:59:40.705Z,0.18
2023-01-19T20:02:12.091Z,0.10
2023-01-19T20:04:40.470Z,-0.03
2023-01-19T20:07:08.505Z,-0.06
2023-01-19T20:12:46.621Z,-0.25
2023-01-19T20:15:16.198Z,-0.20
2023-01-19T20:17:44.051Z,-0.18
2023-01-19T20:20:12.669Z,-0.32
2023-01-19T20:22:40.606Z,-0.34
2023-01-19T20:25:08.901Z,-0.38
2023-01-19T20:27:43.193Z,-0.53
2023-01-19T20:30:13.751Z,-0.36
2023-01-19T20:32:41.849Z,-0.35
2023-01-19T20:35:09.711Z,-0.33
2023-01-19T20:37:37.598Z,-0.32
2023-01-19T20:40:09.502Z,-0.26
2023-01-19T20:42:41.304Z,-0.34
2023-01-19T20:45:35.545Z,-0.32
2023-01-19T20:48:03.442Z,-0.36
2023-01-19T20:50:31.360Z,-0.42
2023-01-19T20:53:24.881Z,-0.44
2023-01-19T20:55:52.790Z,-0.42
2023-01-19T20:58:21.321Z,-0.58
2023-01-19T21:00:50.763Z,-0.59
2023-01-19T21:03:18.725Z,-0.55
2023-01-19T21:05:48.409Z,-0.46
2023-01-19T21:08:18.503Z,-0.51
2023-01-19T21:10:46.416Z,-0.60
2023-01-19T21:13:16.079Z,-0.69
2023-01-19T21:15:44.021Z,-0.72
2023-01-19T21:18:11.887Z,-0.72
2023-01-19T21:20:39.800Z,-0.84
2023-01-19T21:23:07.802Z,-0.79
2023-01-19T21:25:37.201Z,-0.53
2023-01-19T21:28:05.535Z,-0.75
2023-01-19T21:30:35.608Z,-0.86
2023-01-19T21:33:05.110Z,-0.70
2023-01-19T21:35:33.108Z,-0.76
2023-01-19T21:38:01.259Z,-0.79
2023-01-19T21:40:29.294Z,-0.69
2023-01-19T21:42:59.277Z,-0.58
2023-01-19T21:48:19.943Z,-0.35
2023-01-19T21:50:56.674Z,-0.24
2023-01-19T21:53:24.624Z,-0.26
2023-01-19T21:55:54.191Z,-0.31
2023-01-19T21:58:24.516Z,-0.19
2023-01-19T22:01:01.202Z,-0.07
2023-01-19T22:03:31.776Z,-0.47
2023-01-19T22:06:12.396Z,-0.57
2023-01-19T22:08:41.493Z,-0.56
2023-01-19T22:11:11.628Z,-0.51
2023-01-19T22:13:41.352Z,-0.22
2023-01-19T22:16:15.929Z,-0.28
2023-01-19T22:18:45.951Z,-0.23
2023-01-19T22:21:19.867Z,-0.16
2023-01-19T22:23:56.457Z,-0.26
2023-01-19T22:26:24.947Z,-0.61
2023-01-19T22:28:54.423Z,-0.59
2023-01-19T22:31:23.493Z,-0.43
2023-01-19T22:33:53.916Z,-0.55
2023-01-19T22:36:27.303Z,-0.59
2023-01-19T22:38:57.688Z,-0.53
2023-01-19T22:41:30.505Z,-0.61
2023-01-19T22:44:02.767Z,-0.58
2023-01-19T22:46:34.650Z,-0.20
2023-01-19T22:49:07.449Z,-0.28
2023-01-19T22:51:39.508Z,-0.20
2023-01-19T22:54:08.340Z,-0.52
2023-01-19T22:56:38.797Z,-0.54
2023-01-19T22:59:07.529Z,-0.60
2023-01-19T23:02:01.207Z,-0.60
2023-01-19T23:04:29.232Z,-0.62
2023-01-19T23:06:57.219Z,-0.60
2023-01-19T23:09:25.484Z,-0.70
2023-01-19T23:11:53.391Z,-0.83
2023-01-19T23:14:23.515Z,-0.88
2023-01-19T23:16:52.028Z,-0.67
2023-01-19T23:19:20.506Z,-0.79
2023-01-19T23:21:51.395Z,-0.87
2023-01-19T23:24:19.394Z,-0.86
2023-01-19T23:26:51.520Z,-0.88
2023-01-19T23:29:19.846Z,-0.82
2023-01-19T23:31:50.051Z,-0.93
2023-01-19T23:34:18.556Z,-1.01
2023-01-19T23:36:46.548Z,-0.98
2023-01-19T23:39:18.508Z,-1.01
2023-01-19T23:41:47.527Z,-0.98
2023-01-19T23:44:17.322Z,-1.07
2023-01-19T23:46:45.954Z,-0.92
2023-01-19T23:49:13.871Z,-0.98
2023-01-19T23:51:42.155Z,-0.95
